Wichita Mid Continent Airport
KICT : now visible

Airfield :











YOU CAN JOIN US ON...

 
LOGIN :

Register | Disclaimer

   EN    FR    IT 

 









Legend :    VFR   Marginal VFR   IFR   Intensive IFR   Very Intensive IFR
Visi :
Ceiling :
>= 8 km
>= 3000ft
5 to 8 km
1000 to 3000 ft
1500m to 5 km
500 to 1000 ft
800 to 1500m
200 to 500 ft
< 800m
< 200 ft
Symbols :   Thunderstorms  Fog  Heavy snow  Heavy precipitations  Wind > 20 kt






- Airport Elevation : 1333 ft
- IATA code : ICT


KICT - Wichita Mid Continent

CURRENT METAR :
  • 251353Z 04005KT 1 3/4SM R01L/5000VP6000FT -RA BR BKN005 OVC009 03/03 A2960 RMK AO2 TWR VIS 2 1/2 RAE1255B13 SLP029 P0005 T00330028

EXPIRED METARs :
  • 251321Z 07004KT 2 1/2SM -RA BR OVC006 03/03 A2961 RMK AO2 RAE1255B13 P0001 T00330028
  • 251253Z 07006KT 5SM -RA BR OVC005 03/03 A2961 RMK AO2 RAB33 SLP031 P0000 T00330028
  • 251153Z 07009KT 10SM OVC006 03/02 A2959 RMK AO2 RAE41 SLP027 P0003 60074 70074 T00280022 10028 20022 58041

TAF KICT
Valid from the 25 at 13:00 until the 26 at 12:00 UTC


251326Z 2513/2612 06013KT P6SM OVC005
TEMPO 2513/2515 3SM -RA BR OVC003
FM251500 06011KT 6SM BR OVC004
FM251700 34014KT P6SM OVC004
FM252100 31010KT P6SM OVC008
KZKC FIR / North America



MET'MAP, your aeronautical weather chart ! - Copyright ORBIFLY December 2007 - Disclaimer

ORBIFLY MET'MAP TEAM :

Programming & Development : Alexandra Zaïnal
Concept & original design : Baudouin d'Aumeries
Assistance for programming : Marc-Olivier Méhu
Technical & hardware support : Manuel Goepfert

Contact : metmap@orbifly.com




SOURCES & CREDITS :

   NOAA       Earth
Advisory